Time;durP1;ratioP1;P1;durP2;ratioP2;P2;SDS_P1;SDS_P2;PMS_P1;PMS_P2;Temp;Humidity;BMP_temperature;BMP_pressure;BME280_temperature;BME280_humidity;BME280_pressure;Samples;Min_cycle;Max_cycle;Signal;HPM_P1;HPM_P2
2022/03/30 00:00:37;;;;;;;;;;;7.00;99.90;;;;;;4969141;28;20001;-52
2022/03/30 00:03:04;;;;;;;;;;;6.90;99.90;;;;;;4968607;28;19981;-51
2022/03/30 00:05:30;;;;;;;;;;;6.90;99.90;;;;;;4971340;28;20290;-52
2022/03/30 00:07:55;;;;;;;;;;;6.90;99.90;;;;;;4972526;28;20358;-52
2022/03/30 00:10:21;;;;;;;;;;;7.00;99.90;;;;;;4972518;28;20048;-52
2022/03/30 00:12:47;;;;;;;;;;;6.90;99.90;;;;;;4972179;28;20362;-52
2022/03/30 00:15:13;;;;;;;;;;;7.00;99.90;;;;;;4972133;28;19909;-51
2022/03/30 00:17:39;;;;;;;;;;;6.90;99.90;;;;;;4969519;28;19913;-51
2022/03/30 00:20:05;;;;;;;;;;;6.90;99.90;;;;;;4972249;28;20121;-52
2022/03/30 00:22:30;;;;;;;;;;;6.90;99.90;;;;;;4972423;28;19910;-52
2022/03/30 00:24:56;;;;;;;;;;;6.80;99.90;;;;;;4972986;28;19910;-51
2022/03/30 00:27:21;;;;;;;;;;;6.80;99.90;;;;;;4972740;28;19910;-51
2022/03/30 00:29:47;;;;;;;;;;;6.70;99.90;;;;;;4972034;28;19906;-52
2022/03/30 00:32:12;;;;;;;;;;;6.60;99.90;;;;;;4971962;28;19917;-52
2022/03/30 00:34:39;;;;;;;;;;;6.70;99.90;;;;;;4983547;28;20369;-51
2022/03/30 00:37:05;;;;;;;;;;;6.70;99.90;;;;;;4991926;28;20056;-51
2022/03/30 00:39:31;;;;;;;;;;;6.60;99.90;;;;;;4991915;28;20035;-51
2022/03/30 00:41:56;;;;;;;;;;;6.50;99.90;;;;;;4991860;28;20012;-51
2022/03/30 00:44:22;;;;;;;;;;;6.60;99.90;;;;;;4991927;28;19917;-52
2022/03/30 00:46:48;;;;;;;;;;;6.50;99.90;;;;;;4991826;28;19906;-51
2022/03/30 00:49:13;;;;;;;;;;;6.60;99.90;;;;;;4973990;28;19972;-52
2022/03/30 00:51:39;;;;;;;;;;;6.50;99.90;;;;;;4991649;28;19917;-51
2022/03/30 00:54:05;;;;;;;;;;;6.50;99.90;;;;;;4991585;28;19918;-50
2022/03/30 00:56:32;;;;;;;;;;;6.40;99.90;;;;;;4984512;28;20016;-51
2022/03/30 00:58:58;;;;;;;;;;;6.40;99.90;;;;;;4972051;28;19906;-52
2022/03/30 01:01:24;;;;;;;;;;;6.40;99.90;;;;;;4971740;28;19906;-50
2022/03/30 01:03:50;;;;;;;;;;;6.40;99.90;;;;;;4953869;28;20716;-52
2022/03/30 01:06:16;;;;;;;;;;;6.30;99.90;;;;;;4971259;28;19910;-51
2022/03/30 01:08:42;;;;;;;;;;;6.20;99.90;;;;;;4954163;28;19957;-53
2022/03/30 01:11:09;;;;;;;;;;;6.20;99.90;;;;;;4972076;28;19996;-53
2022/03/30 01:13:35;;;;;;;;;;;6.10;99.90;;;;;;4971775;28;19917;-53
2022/03/30 01:16:02;;;;;;;;;;;6.20;99.90;;;;;;4970924;28;20258;-50
2022/03/30 01:18:27;;;;;;;;;;;6.20;99.90;;;;;;4967354;28;19906;-52
2022/03/30 01:20:53;;;;;;;;;;;6.20;99.90;;;;;;4968644;28;19917;-52
2022/03/30 01:23:19;;;;;;;;;;;6.10;99.90;;;;;;4971288;28;19941;-52
2022/03/30 01:25:44;;;;;;;;;;;6.00;99.90;;;;;;4971631;28;19910;-51
2022/03/30 01:28:10;;;;;;;;;;;6.00;99.90;;;;;;4971552;28;19910;-52
2022/03/30 01:33:20;;;;;;;;;;;5.90;99.90;;;;;;4970709;28;20336;-51
2022/03/30 01:35:46;;;;;;;;;;;5.70;99.90;;;;;;4972557;28;19910;-51
2022/03/30 01:38:11;;;;;;;;;;;5.70;99.90;;;;;;4988749;28;19913;-52
2022/03/30 01:40:37;;;;;;;;;;;5.70;99.90;;;;;;4970497;28;19910;-49
2022/03/30 01:43:03;;;;;;;;;;;5.70;99.90;;;;;;4970637;28;20057;-52
2022/03/30 01:45:29;;;;;;;;;;;5.60;99.90;;;;;;4970955;28;20012;-51
2022/03/30 01:47:57;;;;;;;;;;;5.70;99.90;;;;;;4970874;28;19910;-52
2022/03/30 01:50:22;;;;;;;;;;;5.70;99.90;;;;;;4971068;28;20005;-52
2022/03/30 01:52:48;;;;;;;;;;;5.70;99.90;;;;;;4971229;28;20029;-51
2022/03/30 01:55:14;;;;;;;;;;;5.60;99.90;;;;;;4971208;28;20020;-50
2022/03/30 01:57:39;;;;;;;;;;;5.60;99.90;;;;;;4970941;28;19957;-50
2022/03/30 02:00:06;;;;;;;;;;;5.60;99.90;;;;;;4970955;28;19917;-51
2022/03/30 02:02:31;;;;;;;;;;;5.40;99.90;;;;;;4970707;28;20375;-52
2022/03/30 02:04:57;;;;;;;;;;;5.40;99.90;;;;;;4971028;28;20004;-53
2022/03/30 02:07:23;;;;;;;;;;;5.30;99.90;;;;;;4970659;28;20381;-52
2022/03/30 02:09:48;;;;;;;;;;;5.30;99.90;;;;;;4971086;28;19910;-51
2022/03/30 02:12:14;;;;;;;;;;;5.30;99.90;;;;;;4970575;28;19960;-50
2022/03/30 02:14:41;;;;;;;;;;;5.20;99.90;;;;;;4969101;28;19925;-51
2022/03/30 02:17:07;;;;;;;;;;;5.20;99.90;;;;;;4950897;29;19921;-50
2022/03/30 02:19:32;;;;;;;;;;;5.10;99.90;;;;;;4948481;29;19910;-51
2022/03/30 02:21:58;;;;;;;;;;;5.00;99.90;;;;;;4951552;29;19937;-51
2022/03/30 02:24:24;;;;;;;;;;;4.80;99.90;;;;;;4951649;29;20273;-50
2022/03/30 02:26:51;;;;;;;;;;;4.80;99.90;;;;;;4951380;28;20008;-50
2022/03/30 02:29:16;;;;;;;;;;;4.70;99.90;;;;;;4951513;29;20653;-50
2022/03/30 02:31:42;;;;;;;;;;;4.80;99.90;;;;;;4951175;29;20093;-49
2022/03/30 02:34:08;;;;;;;;;;;4.90;99.90;;;;;;4952129;28;19919;-52
2022/03/30 02:36:34;;;;;;;;;;;4.90;99.90;;;;;;4990011;28;20262;-51
2022/03/30 02:38:59;;;;;;;;;;;5.00;99.90;;;;;;4989918;28;19917;-50
2022/03/30 02:41:26;;;;;;;;;;;5.00;99.90;;;;;;4990235;28;20627;-50
2022/03/30 02:43:52;;;;;;;;;;;5.00;99.90;;;;;;4989726;28;20361;-50
2022/03/30 02:46:17;;;;;;;;;;;5.00;99.90;;;;;;4990118;28;19905;-51
2022/03/30 02:48:43;;;;;;;;;;;4.90;99.90;;;;;;4989620;28;19932;-52
2022/03/30 02:51:09;;;;;;;;;;;4.90;99.90;;;;;;4989079;28;19968;-51
2022/03/30 02:53:35;;;;;;;;;;;4.90;99.90;;;;;;4988845;28;20560;-51
2022/03/30 02:56:01;;;;;;;;;;;5.00;99.90;;;;;;4968541;28;19914;-50
2022/03/30 02:58:27;;;;;;;;;;;4.90;99.90;;;;;;4970190;28;19918;-51
2022/03/30 03:00:54;;;;;;;;;;;4.90;99.90;;;;;;4970215;28;19910;-50
2022/03/30 03:03:20;;;;;;;;;;;4.80;99.90;;;;;;4969616;28;20495;-52
2022/03/30 03:05:45;;;;;;;;;;;4.80;99.90;;;;;;4970043;28;19941;-52
2022/03/30 03:08:11;;;;;;;;;;;4.90;99.90;;;;;;4970159;28;20325;-51
2022/03/30 03:10:37;;;;;;;;;;;4.80;99.90;;;;;;4970458;28;19968;-53
2022/03/30 03:13:03;;;;;;;;;;;4.70;99.90;;;;;;4970147;28;19914;-53
2022/03/30 03:15:29;;;;;;;;;;;4.70;99.90;;;;;;4970164;28;19929;-52
2022/03/30 03:17:55;;;;;;;;;;;4.60;99.90;;;;;;4968177;28;20290;-51
2022/03/30 03:20:21;;;;;;;;;;;4.50;99.90;;;;;;4966551;28;19917;-50
2022/03/30 03:22:46;;;;;;;;;;;4.40;99.90;;;;;;4969367;28;19914;-53
2022/03/30 03:25:12;;;;;;;;;;;4.40;99.90;;;;;;4969565;28;20255;-52
2022/03/30 03:27:38;;;;;;;;;;;4.50;99.90;;;;;;4969170;28;20292;-53
2022/03/30 03:30:05;;;;;;;;;;;4.50;99.90;;;;;;4969739;28;19906;-51
2022/03/30 03:32:30;;;;;;;;;;;4.30;99.90;;;;;;4969733;28;19949;-51
2022/03/30 03:34:56;;;;;;;;;;;4.30;99.90;;;;;;4977204;28;19972;-51
2022/03/30 03:37:22;;;;;;;;;;;4.30;99.90;;;;;;4988844;28;20497;-53
2022/03/30 03:39:47;;;;;;;;;;;4.30;99.90;;;;;;4990607;28;19905;-51
2022/03/30 03:42:13;;;;;;;;;;;4.40;99.90;;;;;;4993151;28;19917;-51
2022/03/30 03:44:39;;;;;;;;;;;4.40;99.90;;;;;;4992845;28;19909;-52
2022/03/30 03:47:07;;;;;;;;;;;4.30;99.90;;;;;;4993048;28;19941;-52
2022/03/30 03:49:33;;;;;;;;;;;4.20;99.90;;;;;;4993115;28;20411;-53
2022/03/30 03:51:59;;;;;;;;;;;4.20;99.90;;;;;;4992409;28;20474;-52
2022/03/30 03:54:24;;;;;;;;;;;4.20;99.90;;;;;;4992961;28;19965;-51
2022/03/30 03:56:50;;;;;;;;;;;4.00;99.90;;;;;;4982884;28;20001;-52
2022/03/30 03:59:15;;;;;;;;;;;4.00;99.90;;;;;;4973253;28;20004;-52
2022/03/30 04:01:41;;;;;;;;;;;4.10;99.90;;;;;;4972518;28;20416;-50
2022/03/30 04:04:07;;;;;;;;;;;4.00;99.90;;;;;;4972722;28;19914;-51
2022/03/30 04:06:32;;;;;;;;;;;4.00;99.90;;;;;;4973495;28;19917;-51
2022/03/30 04:08:58;;;;;;;;;;;3.90;99.90;;;;;;4972843;28;19933;-52
2022/03/30 04:11:24;;;;;;;;;;;3.90;99.90;;;;;;4972999;28;19906;-52
2022/03/30 04:13:50;;;;;;;;;;;3.80;99.90;;;;;;4972726;28;19957;-51
2022/03/30 04:16:16;;;;;;;;;;;3.80;99.90;;;;;;4973174;28;19918;-53
2022/03/30 04:18:42;;;;;;;;;;;3.90;99.90;;;;;;4972750;28;20338;-52
2022/03/30 04:21:07;;;;;;;;;;;4.00;99.90;;;;;;4970047;28;19910;-52
2022/03/30 04:23:33;;;;;;;;;;;3.90;99.90;;;;;;4972550;28;20413;-51
2022/03/30 04:25:58;;;;;;;;;;;3.80;99.90;;;;;;4972753;28;19910;-52
2022/03/30 04:28:24;;;;;;;;;;;4.00;99.90;;;;;;4972604;28;20000;-52
2022/03/30 04:30:49;;;;;;;;;;;4.10;99.90;;;;;;4972717;28;20012;-54
2022/03/30 04:33:15;;;;;;;;;;;4.00;99.90;;;;;;4972564;28;19941;-50
2022/03/30 04:35:40;;;;;;;;;;;4.00;99.90;;;;;;4985786;28;20391;-51
2022/03/30 04:38:06;;;;;;;;;;;4.10;99.90;;;;;;4991812;28;20383;-52
2022/03/30 04:40:32;;;;;;;;;;;4.10;99.90;;;;;;4991724;28;20191;-50
2022/03/30 04:42:57;;;;;;;;;;;4.10;99.90;;;;;;4991472;28;19916;-50
2022/03/30 04:45:23;;;;;;;;;;;4.10;99.90;;;;;;4992121;28;19988;-52
2022/03/30 04:47:49;;;;;;;;;;;4.10;99.90;;;;;;4991649;28;20313;-51
2022/03/30 04:50:15;;;;;;;;;;;4.10;99.90;;;;;;4991366;28;20000;-52
2022/03/30 04:52:41;;;;;;;;;;;4.10;99.90;;;;;;4990586;28;20440;-51
2022/03/30 04:55:07;;;;;;;;;;;4.10;99.90;;;;;;4991405;28;19914;-51
2022/03/30 04:57:33;;;;;;;;;;;4.10;99.90;;;;;;4976005;28;19906;-53
2022/03/30 04:59:59;;;;;;;;;;;4.20;99.90;;;;;;4971984;28;19960;-51
2022/03/30 05:02:26;;;;;;;;;;;4.20;99.90;;;;;;4971988;28;19933;-50
2022/03/30 05:04:52;;;;;;;;;;;4.20;99.90;;;;;;4971925;28;19994;-52
2022/03/30 05:07:17;;;;;;;;;;;4.20;99.90;;;;;;4971353;28;19916;-51
2022/03/30 05:09:43;;;;;;;;;;;4.10;99.90;;;;;;4971561;28;19909;-52
2022/03/30 05:12:09;;;;;;;;;;;4.10;99.90;;;;;;5048369;23;20009;-87
2022/03/30 05:14:34;;;;;;;;;;;4.20;99.90;;;;;;4958583;28;20016;-88
2022/03/30 05:17:00;;;;;;;;;;;4.20;99.90;;;;;;4975347;28;19906;-86
2022/03/30 05:19:26;;;;;;;;;;;4.30;99.90;;;;;;4975513;28;19916;-89
2022/03/30 05:21:52;;;;;;;;;;;4.30;99.90;;;;;;4973373;28;19956;-86
2022/03/30 05:24:18;;;;;;;;;;;4.30;99.90;;;;;;4976279;28;19996;-85
2022/03/30 05:26:44;;;;;;;;;;;4.40;99.90;;;;;;4973221;28;20013;-87
2022/03/30 05:29:09;;;;;;;;;;;4.40;99.90;;;;;;4975923;28;19973;-87
2022/03/30 05:31:35;;;;;;;;;;;4.40;99.90;;;;;;4974864;28;19917;-86
2022/03/30 05:34:00;;;;;;;;;;;4.50;99.90;;;;;;4972698;28;19922;-85
2022/03/30 05:36:26;;;;;;;;;;;4.60;99.90;;;;;;4979279;28;19906;-87
2022/03/30 05:38:52;;;;;;;;;;;4.60;99.90;;;;;;4976889;28;19909;-84
2022/03/30 05:41:18;;;;;;;;;;;4.70;99.90;;;;;;4975512;28;19981;-87
2022/03/30 05:43:56;;;;;;;;;;;4.70;99.90;;;;;;4964092;28;19909;-90
2022/03/30 05:46:22;;;;;;;;;;;4.70;99.90;;;;;;4962640;28;19933;-87
2022/03/30 05:48:47;;;;;;;;;;;4.80;99.90;;;;;;4963460;28;19914;-89
2022/03/30 05:51:13;;;;;;;;;;;4.90;99.90;;;;;;4968159;28;19996;-89
2022/03/30 05:53:39;;;;;;;;;;;4.90;99.90;;;;;;4959363;28;19958;-88
2022/03/30 05:56:05;;;;;;;;;;;5.00;99.90;;;;;;4954819;28;19917;-90
2022/03/30 05:58:31;;;;;;;;;;;5.00;99.90;;;;;;4958814;28;19914;-85
2022/03/30 06:01:06;;;;;;;;;;;5.00;99.90;;;;;;4945091;29;20358;-91
2022/03/30 06:03:51;;;;;;;;;;;5.10;99.90;;;;;;4938678;29;20385;-88
2022/03/30 06:06:35;;;;;;;;;;;5.20;99.90;;;;;;4948307;29;19922;-89
2022/03/30 06:09:15;;;;;;;;;;;5.30;99.90;;;;;;4947649;29;19918;-87
2022/03/30 06:11:44;;;;;;;;;;;5.40;99.90;;;;;;4947468;29;19907;-85
2022/03/30 06:14:09;;;;;;;;;;;5.50;99.90;;;;;;4944233;29;19926;-90
2022/03/30 06:16:35;;;;;;;;;;;5.60;99.90;;;;;;4972025;28;19906;-90
2022/03/30 06:22:40;;;;;;;;;;;5.60;99.90;;;;;;4980540;28;19917;-92
2022/03/30 06:25:57;;;;;;;;;;;;;;;;;;;;;
2022/03/30 06:28:50;;;;;;;;;;;5.80;99.90;;;;;;4919728;29;19921;-86
2022/03/30 06:31:19;;;;;;;;;;;6.00;99.90;;;;;;4901095;29;19907;-86
2022/03/30 06:34:00;;;;;;;;;;;6.10;99.90;;;;;;4896187;29;19967;-88
2022/03/30 06:36:29;;;;;;;;;;;6.20;99.90;;;;;;4877398;29;20018;-89
2022/03/30 06:39:31;;;;;;;;;;;6.40;99.90;;;;;;4878248;29;19943;-91
2022/03/30 06:48:17;;;;;;;;;;;6.90;99.90;;;;;;4877363;29;19918;-88
2022/03/30 06:50:43;;;;;;;;;;;7.10;99.90;;;;;;4921385;29;19933;-86
2022/03/30 06:53:10;;;;;;;;;;;7.20;99.90;;;;;;4936908;29;20005;-87
2022/03/30 06:55:40;;;;;;;;;;;7.40;99.90;;;;;;4940367;29;19961;-88
2022/03/30 06:58:06;;;;;;;;;;;7.50;99.90;;;;;;4956569;29;19913;-85
2022/03/30 07:00:35;;;;;;;;;;;7.70;99.90;;;;;;4941510;29;19985;-87
2022/03/30 07:03:01;;;;;;;;;;;7.80;99.90;;;;;;4940682;29;19926;-86
2022/03/30 07:05:31;;;;;;;;;;;7.90;99.90;;;;;;4941040;29;19929;-87
2022/03/30 07:10:41;;;;;;;;;;;8.10;99.90;;;;;;4953962;29;20285;-85
2022/03/30 07:13:07;;;;;;;;;;;8.20;99.90;;;;;;4936301;29;19918;-85
2022/03/30 07:15:33;;;;;;;;;;;8.30;99.90;;;;;;4952467;28;19912;-84
2022/03/30 07:17:59;;;;;;;;;;;8.40;99.90;;;;;;4975865;28;19913;-86
2022/03/30 07:20:30;;;;;;;;;;;8.50;99.90;;;;;;4976686;28;19917;-86
2022/03/30 07:22:57;;;;;;;;;;;8.60;99.90;;;;;;4976366;28;19965;-84
2022/03/30 07:25:23;;;;;;;;;;;8.70;99.90;;;;;;4975761;28;19913;-89
2022/03/30 07:27:51;;;;;;;;;;;8.80;99.90;;;;;;4975588;28;20261;-88
2022/03/30 07:30:17;;;;;;;;;;;8.90;99.90;;;;;;4976397;28;19937;-86
2022/03/30 07:32:45;;;;;;;;;;;9.10;99.90;;;;;;4975950;28;19906;-89
2022/03/30 07:35:11;;;;;;;;;;;9.10;99.90;;;;;;4980043;28;20381;-86
2022/03/30 07:37:37;;;;;;;;;;;9.10;99.90;;;;;;4980079;28;20342;-87
2022/03/30 07:40:04;;;;;;;;;;;9.20;99.90;;;;;;4979594;28;19905;-88
2022/03/30 07:42:30;;;;;;;;;;;9.40;99.90;;;;;;4979260;28;19965;-86
2022/03/30 07:44:56;;;;;;;;;;;9.40;99.90;;;;;;4979112;28;20611;-85
2022/03/30 07:47:31;;;;;;;;;;;9.50;99.90;;;;;;4980070;28;19906;-85
2022/03/30 07:49:57;;;;;;;;;;;9.60;99.90;;;;;;4978962;28;19909;-87
2022/03/30 07:52:22;;;;;;;;;;;9.70;99.90;;;;;;4979808;28;19906;-86
2022/03/30 07:54:49;;;;;;;;;;;9.80;99.90;;;;;;4979794;28;19984;-86
2022/03/30 07:57:15;;;;;;;;;;;9.90;99.90;;;;;;4967078;28;20350;-86
2022/03/30 07:59:41;;;;;;;;;;;10.00;99.90;;;;;;4961044;28;20049;-86
2022/03/30 08:02:07;;;;;;;;;;;10.10;99.90;;;;;;4960034;28;19946;-84
2022/03/30 08:04:33;;;;;;;;;;;10.10;99.90;;;;;;4959384;28;19913;-83
2022/03/30 08:06:58;;;;;;;;;;;10.30;99.90;;;;;;4962463;28;19913;-87
2022/03/30 08:09:24;;;;;;;;;;;10.30;99.90;;;;;;4970800;28;20316;-88
2022/03/30 08:11:50;;;;;;;;;;;10.60;99.90;;;;;;4957127;28;19982;-91
2022/03/30 08:14:45;;;;;;;;;;;10.40;99.90;;;;;;4959620;28;19946;-87
2022/03/30 08:17:14;;;;;;;;;;;10.50;99.90;;;;;;4940015;28;19953;-86
2022/03/30 08:19:40;;;;;;;;;;;10.50;99.90;;;;;;4970229;28;20373;-90
2022/03/30 09:00:20;;;;;;;;;;;13.00;99.70;;;;;;4834412;29;20364;-89
2022/03/30 09:03:14;;;;;;;;;;;12.90;99.90;;;;;;4861766;29;19911;-89
2022/03/30 09:05:53;;;;;;;;;;;13.60;99.90;;;;;;4970252;28;20270;-87
2022/03/30 09:08:21;;;;;;;;;;;13.10;94.80;;;;;;4969192;28;20587;-86
2022/03/30 09:10:58;;;;;;;;;;;13.80;94.50;;;;;;4953800;28;20038;-86
2022/03/30 09:13:35;;;;;;;;;;;14.00;92.30;;;;;;4950347;28;20436;-86
2022/03/30 09:16:19;;;;;;;;;;;13.10;84.70;;;;;;4953132;28;19918;-89
2022/03/30 09:44:51;;;;;;;51.05;26.05;;;11.80;89.80;;;;;;5083242;27;1287893;-51
2022/03/30 09:47:19;;;;;;;51.38;27.20;;;12.60;84.90;;;;;;5106266;28;20048;-51
2022/03/30 09:49:49;;;;;;;;;;;12.80;87.50;;;;;;5106167;28;20020;-52
2022/03/30 09:52:38;;;;;;;52.13;29.42;;;12.90;86.20;;;;;;5105762;28;19912;-51
2022/03/30 09:55:05;;;;;;;47.13;27.63;;;12.40;87.30;;;;;;5105908;28;20043;-52
2022/03/30 09:57:38;;;;;;;45.47;25.77;;;12.30;88.60;;;;;;5105295;28;20016;-52
2022/03/30 10:00:18;;;;;;;46.03;26.52;;;12.50;88.30;;;;;;5100210;28;20059;-51
2022/03/30 10:02:47;;;;;;;47.10;26.60;;;12.70;88.60;;;;;;5104907;28;20172;-52
2022/03/30 10:05:19;;;;;;;55.22;31.55;;;12.60;89.10;;;;;;5104517;28;20101;-51
2022/03/30 10:07:47;;;;;;;49.65;31.55;;;12.70;90.50;;;;;;5089950;28;20028;-51
2022/03/30 10:10:16;;;;;;;52.72;28.92;;;12.70;89.00;;;;;;5083458;28;20021;-52
2022/03/30 10:12:42;;;;;;;55.97;29.88;;;13.00;88.90;;;;;;5082976;28;20028;-52
2022/03/30 10:15:10;;;;;;;47.45;29.20;;;13.10;87.70;;;;;;5083354;28;20091;-52
2022/03/30 10:17:36;;;;;;;57.30;31.63;;;13.20;86.60;;;;;;5083248;28;20050;-51
2022/03/30 10:20:04;;;;;;;53.35;31.52;;;13.50;88.30;;;;;;5065099;28;20029;-53
2022/03/30 10:22:52;;;;;;;51.17;29.20;;;13.80;86.90;;;;;;5084512;28;20028;-53
2022/03/30 10:25:29;;;;;;;45.10;26.27;;;13.90;87.80;;;;;;5085052;28;20107;-50
2022/03/30 10:28:08;;;;;;;46.33;25.77;;;14.20;84.90;;;;;;5084142;28;20379;-51
2022/03/30 10:30:35;;;;;;;50.22;29.40;;;14.20;85.30;;;;;;5094583;28;20027;-52
2022/03/30 10:33:03;;;;;;;49.35;29.88;;;14.40;78.50;;;;;;5101281;28;20048;-50
2022/03/30 10:35:39;;;;;;;46.05;28.15;;;14.60;78.60;;;;;;5103610;28;20028;-53
2022/03/30 10:38:05;;;;;;;50.05;28.00;;;14.60;76.20;;;;;;5104311;28;20111;-52
2022/03/30 10:40:30;;;;;;;48.42;27.13;;;15.00;81.30;;;;;;5104742;28;20115;-51
2022/03/30 10:42:59;;;;;;;53.10;29.00;;;15.20;79.90;;;;;;5104692;28;20040;-53
2022/03/30 10:45:42;;;;;;;47.10;28.67;;;15.30;74.40;;;;;;5092017;28;20036;-53
2022/03/30 10:48:14;;;;;;;55.10;29.42;;;15.20;73.40;;;;;;5090528;28;20022;-53
2022/03/30 10:50:49;;;;;;;46.03;27.30;;;14.40;72.80;;;;;;5090791;28;20035;-51
2022/03/30 10:53:38;;;;;;;43.60;26.60;;;14.40;75.70;;;;;;5091140;28;20032;-51
2022/03/30 10:56:15;;;;;;;85.80;31.13;;;14.20;71.90;;;;;;5072881;28;20111;-50
2022/03/30 10:58:52;;;;;;;47.45;27.73;;;13.70;75.80;;;;;;5090547;28;20539;-52
2022/03/30 11:01:24;;;;;;;46.92;29.63;;;13.60;77.00;;;;;;5091002;28;20054;-51
2022/03/30 11:04:05;;;;;;;52.35;30.02;;;13.00;77.30;;;;;;5072578;28;20028;-51
2022/03/30 11:06:35;;;;;;;52.35;31.00;;;12.90;79.10;;;;;;5088437;28;20028;-51
2022/03/30 11:09:03;;;;;;;48.53;29.45;;;12.60;80.40;;;;;;5070445;28;20029;-50
2022/03/30 11:11:39;;;;;;;53.90;31.20;;;12.70;83.10;;;;;;5070440;28;20033;-51
2022/03/30 11:14:46;;;;;;;50.78;29.27;;;12.80;86.30;;;;;;5065635;28;20507;-50
2022/03/30 11:17:14;;;;;;;48.22;27.70;;;12.70;82.00;;;;;;5070551;28;20037;-50
2022/03/30 11:19:55;;;;;;;52.67;29.58;;;12.70;81.70;;;;;;5070305;28;20028;-51
2022/03/30 11:22:41;;;;;;;49.20;28.50;;;12.60;82.40;;;;;;5070190;28;20020;-51
2022/03/30 11:25:20;;;;;;;49.80;29.38;;;12.50;84.00;;;;;;5070529;28;20028;-51
2022/03/30 11:27:58;;;;;;;54.60;29.15;;;12.30;84.10;;;;;;5070102;28;20623;-51
2022/03/30 11:30:31;;;;;;;62.90;30.60;;;12.40;85.10;;;;;;5069932;28;20029;-51
2022/03/30 11:33:04;;;;;;;55.08;29.85;;;12.50;89.90;;;;;;5082716;28;20047;-50
2022/03/30 11:35:37;;;;;;;98.90;59.17;;;12.60;90.30;;;;;;5089710;28;20552;-52
2022/03/30 11:38:05;;;;;;;52.65;30.42;;;12.80;92.30;;;;;;5090069;28;20447;-51
2022/03/30 11:40:36;;;;;;;50.47;27.80;;;12.80;90.10;;;;;;5090058;28;20093;-51
2022/03/30 11:43:01;;;;;;;47.70;28.02;;;12.80;87.40;;;;;;5083720;28;20056;-51
2022/03/30 11:45:29;;;;;;;51.92;28.02;;;13.00;91.00;;;;;;5074242;28;20024;-50
2022/03/30 11:48:11;;;;;;;43.53;24.70;;;12.90;88.70;;;;;;5089728;28;20522;-50
2022/03/30 11:50:50;;;;;;;44.63;25.20;;;12.80;84.10;;;;;;5089502;28;20032;-52
2022/03/30 11:53:24;;;;;;;45.67;24.98;;;12.90;83.80;;;;;;5089554;28;20413;-52
2022/03/30 11:56:05;;;;;;;43.88;25.20;;;13.00;85.00;;;;;;5089025;28;20179;-51
2022/03/30 11:58:34;;;;;;;45.75;25.80;;;13.00;82.40;;;;;;5089072;28;20058;-51
2022/03/30 12:01:05;;;;;;;41.88;24.80;;;13.10;87.40;;;;;;5088589;28;20036;-50
2022/03/30 12:03:32;;;;;;;48.20;27.45;;;13.10;82.60;;;;;;5089822;28;20557;-50
2022/03/30 12:05:59;;;;;;;45.90;27.85;;;13.20;85.80;;;;;;5089963;28;20032;-51
2022/03/30 12:08:26;;;;;;;43.92;25.55;;;13.20;86.30;;;;;;5082873;28;20036;-52
2022/03/30 12:10:58;;;;;;;46.63;25.10;;;13.10;81.90;;;;;;5069432;28;20016;-52
2022/03/30 12:13:24;;;;;;;48.42;25.65;;;13.10;83.60;;;;;;5068653;28;20387;-51
2022/03/30 12:16:04;;;;;;;47.05;25.25;;;13.20;84.20;;;;;;5069270;28;20516;-52
2022/03/30 12:18:31;;;;;;;43.15;25.48;;;13.10;82.70;;;;;;5069435;28;20144;-52
2022/03/30 12:21:03;;;;;;;44.50;26.87;;;13.20;84.00;;;;;;5069317;28;20028;-52
2022/03/30 12:23:29;;;;;;;43.92;24.85;;;13.20;83.00;;;;;;5079533;28;20258;-52
2022/03/30 12:25:55;;;;;;;43.67;24.33;;;13.10;82.50;;;;;;5083418;28;20070;-52
2022/03/30 12:28:31;;;;;;;45.97;26.35;;;13.20;84.60;;;;;;5086876;28;20028;-53
2022/03/30 12:30:57;;;;;;;44.03;25.23;;;13.00;81.70;;;;;;5088755;28;20020;-52
2022/03/30 12:33:23;;;;;;;47.63;27.27;;;13.00;82.00;;;;;;5088684;28;20178;-52
2022/03/30 12:35:52;;;;;;;43.15;23.52;;;12.90;81.20;;;;;;5089135;28;20035;-51
2022/03/30 12:38:21;;;;;;;40.75;23.98;;;12.90;82.60;;;;;;5088290;28;20079;-51
2022/03/30 12:40:52;;;;;;;40.97;24.23;;;12.90;83.00;;;;;;5088989;28;20058;-53
2022/03/30 12:43:23;;;;;;;39.88;23.52;;;12.90;82.00;;;;;;5088460;28;20060;-52
2022/03/30 12:45:54;;;;;;;47.78;25.50;;;12.80;82.80;;;;;;5088801;28;20016;-51
2022/03/30 12:48:31;;;;;;;45.30;25.17;;;12.80;84.00;;;;;;5088738;28;20040;-53
2022/03/30 12:51:02;;;;;;;41.78;24.58;;;12.70;85.90;;;;;;5088663;28;20035;-51
2022/03/30 12:53:36;;;;;;;42.10;24.63;;;12.70;84.40;;;;;;5088549;28;20661;-52
2022/03/30 12:56:14;;;;;;;40.25;22.67;;;12.60;82.10;;;;;;5087498;28;20027;-51
2022/03/30 12:59:01;;;;;;;38.20;23.23;;;12.70;83.40;;;;;;5086661;28;20715;-51
2022/03/30 13:01:45;;;;;;;46.67;24.00;;;12.50;81.50;;;;;;5088613;28;20540;-52
2022/03/30 13:04:47;;;;;;;44.42;25.42;;;12.50;81.30;;;;;;5088519;28;20020;-50
2022/03/30 13:07:16;;;;;;;43.80;22.98;;;12.50;83.00;;;;;;5071236;28;20113;-51
2022/03/30 13:10:01;;;;;;;51.78;24.13;;;12.40;81.60;;;;;;5088608;28;20032;-53
2022/03/30 13:12:40;;;;;;;41.92;23.40;;;12.40;83.10;;;;;;5088263;28;20040;-51
2022/03/30 13:15:08;;;;;;;47.78;25.17;;;12.30;83.00;;;;;;5088434;28;20486;-50
2022/03/30 13:17:35;;;;;;;45.42;24.85;;;12.40;84.90;;;;;;5088255;28;20027;-52
2022/03/30 13:20:02;;;;;;;46.25;25.60;;;12.40;83.70;;;;;;5088486;28;20417;-51
2022/03/30 13:22:28;;;;;;;40.70;23.35;;;12.40;83.60;;;;;;5088364;28;20114;-52
2022/03/30 13:24:54;;;;;;;46.58;24.98;;;12.30;82.80;;;;;;5088262;28;20042;-51
2022/03/30 13:27:21;;;;;;;43.70;24.30;;;12.20;82.90;;;;;;5088148;28;20674;-51
2022/03/30 13:29:47;;;;;;;;;;;12.30;84.30;;;;;;5088455;28;20063;-50
2022/03/30 13:32:13;;;;;;;45.17;23.52;;;12.20;84.10;;;;;;5087381;28;20347;-52
2022/03/30 13:34:39;;;;;;;45.15;22.90;;;12.20;83.60;;;;;;5087074;28;20085;-53
2022/03/30 13:37:06;;;;;;;40.80;23.42;;;12.10;86.10;;;;;;5087244;28;20024;-52
2022/03/30 13:39:32;;;;;;;43.97;24.02;;;12.10;89.20;;;;;;5087595;28;20127;-51
2022/03/30 13:41:58;;;;;;;45.50;23.67;;;12.00;90.60;;;;;;5088193;28;20629;-50
2022/03/30 13:44:25;;;;;;;47.70;26.45;;;12.10;90.90;;;;;;5087828;28;20411;-51
2022/03/30 13:46:51;;;;;;;44.88;26.50;;;12.10;90.70;;;;;;5087976;28;20471;-50
2022/03/30 13:49:41;;;;;;;44.70;26.03;;;12.00;90.50;;;;;;5088064;28;20068;-51
2022/03/30 13:52:04;;;;;;;47.90;24.55;;;12.00;91.20;;;;;;5087661;28;20479;-53
2022/03/30 13:54:30;;;;;;;43.13;24.20;;;12.00;90.40;;;;;;5088123;28;20025;-51
2022/03/30 13:56:56;;;;;;;48.55;26.23;;;11.90;89.80;;;;;;5087816;28;20059;-52
2022/03/30 13:59:21;;;;;;;48.05;24.75;;;12.00;90.10;;;;;;5087994;28;20024;-54
2022/03/30 14:01:49;;;;;;;48.47;25.40;;;11.90;89.70;;;;;;5087906;28;20395;-52
2022/03/30 14:04:15;;;;;;;;;;;12.00;90.80;;;;;;5088213;28;20077;-53
2022/03/30 14:06:40;;;;;;;43.92;23.35;;;11.90;90.30;;;;;;5087804;28;19994;-53
2022/03/30 14:09:07;;;;;;;42.40;24.60;;;11.90;90.00;;;;;;5087888;28;20115;-52
2022/03/30 14:11:32;;;;;;;46.35;25.23;;;11.90;90.20;;;;;;5088088;28;20028;-52
2022/03/30 14:13:58;;;;;;;41.60;23.77;;;11.90;90.40;;;;;;5087537;28;20032;-53
2022/03/30 14:16:24;;;;;;;44.42;23.95;;;11.80;88.70;;;;;;5087895;28;20020;-53
2022/03/30 14:18:49;;;;;;;41.72;24.60;;;11.80;89.30;;;;;;5088122;28;20119;-52
2022/03/30 14:21:15;;;;;;;45.53;22.67;;;11.80;89.30;;;;;;5073356;28;20028;-52
2022/03/30 14:23:41;;;;;;;46.20;22.35;;;11.80;87.80;;;;;;5072987;28;20170;-52
2022/03/30 14:26:07;;;;;;;43.20;23.08;;;11.70;89.10;;;;;;5091630;28;20024;-51
2022/03/30 14:28:32;;;;;;;48.97;23.90;;;11.70;89.30;;;;;;5091429;28;20497;-50
2022/03/30 14:30:58;;;;;;;46.58;23.88;;;11.70;89.20;;;;;;5091102;28;20451;-50
2022/03/30 14:33:24;;;;;;;46.63;23.65;;;11.60;88.40;;;;;;5091229;28;20035;-51
2022/03/30 14:35:51;;;;;;;46.75;23.77;;;11.60;90.10;;;;;;5091738;28;20107;-51
2022/03/30 14:38:17;;;;;;;46.30;23.42;;;11.50;90.10;;;;;;5091113;28;20383;-51
2022/03/30 14:40:44;;;;;;;42.72;24.05;;;11.50;90.70;;;;;;5073265;28;20032;-53
2022/03/30 14:43:10;;;;;;;46.63;24.63;;;11.50;91.90;;;;;;5090750;28;20118;-52
2022/03/30 14:45:36;;;;;;;41.45;23.75;;;11.50;92.30;;;;;;5091406;28;20146;-51
2022/03/30 14:48:02;;;;;;;40.90;24.80;;;11.50;92.70;;;;;;5091046;28;20017;-53
2022/03/30 14:50:28;;;;;;;47.22;24.88;;;11.50;93.50;;;;;;5091165;28;20039;-52
2022/03/30 14:52:54;;;;;;;46.35;25.20;;;11.40;93.90;;;;;;5091236;28;20138;-51
2022/03/30 14:55:19;;;;;;;45.33;23.35;;;11.40;97.00;;;;;;5091149;28;20418;-51
2022/03/30 14:57:51;;;;;;;44.90;24.15;;;11.40;99.00;;;;;;5091205;28;20111;-52
2022/03/30 15:00:17;;;;;;;48.88;23.45;;;11.40;99.90;;;;;;5090849;28;20364;-50
2022/03/30 15:02:43;;;;;;;45.17;24.50;;;11.30;99.90;;;;;;5072668;28;20055;-51
2022/03/30 15:05:09;;;;;;;43.40;24.90;;;11.30;99.90;;;;;;5090874;28;20058;-53
2022/03/30 15:07:35;;;;;;;46.80;25.00;;;11.40;99.90;;;;;;5090560;28;20085;-51